sensor_id;sensor_type;location;lat;lon;timestamp;temperature;humidity
3758;DHT22;1894;51.038;13.692;2023-07-20T00:01:52;17.60;99.90
3758;DHT22;1894;51.038;13.692;2023-07-20T00:04:19;17.50;99.90
3758;DHT22;1894;51.038;13.692;2023-07-20T00:06:47;17.40;99.90
3758;DHT22;1894;51.038;13.692;2023-07-20T00:09:14;17.40;99.90
3758;DHT22;1894;51.038;13.692;2023-07-20T00:11:48;17.50;99.90
3758;DHT22;1894;51.038;13.692;2023-07-20T00:14:17;17.40;99.90
3758;DHT22;1894;51.038;13.692;2023-07-20T00:16:46;17.50;99.90
3758;DHT22;1894;51.038;13.692;2023-07-20T00:19:13;17.60;99.90
3758;DHT22;1894;51.038;13.692;2023-07-20T00:21:40;17.40;99.90
3758;DHT22;1894;51.038;13.692;2023-07-20T00:24:07;17.40;99.90
3758;DHT22;1894;51.038;13.692;2023-07-20T00:26:34;17.40;99.90
3758;DHT22;1894;51.038;13.692;2023-07-20T00:29:01;17.40;99.90
3758;DHT22;1894;51.038;13.692;2023-07-20T00:31:28;17.40;99.90
3758;DHT22;1894;51.038;13.692;2023-07-20T00:33:56;17.40;99.90
3758;DHT22;1894;51.038;13.692;2023-07-20T00:36:23;17.40;99.90
3758;DHT22;1894;51.038;13.692;2023-07-20T00:38:50;17.40;99.90
3758;DHT22;1894;51.038;13.692;2023-07-20T00:41:17;17.20;99.90
3758;DHT22;1894;51.038;13.692;2023-07-20T00:43:44;17.30;99.90
3758;DHT22;1894;51.038;13.692;2023-07-20T00:46:11;17.40;99.90
3758;DHT22;1894;51.038;13.692;2023-07-20T00:48:40;17.40;99.90
3758;DHT22;1894;51.038;13.692;2023-07-20T00:51:08;17.30;99.90
3758;DHT22;1894;51.038;13.692;2023-07-20T00:53:36;17.20;99.90
3758;DHT22;1894;51.038;13.692;2023-07-20T00:56:03;17.40;99.90
3758;DHT22;1894;51.038;13.692;2023-07-20T00:58:31;17.30;99.90
3758;DHT22;1894;51.038;13.692;2023-07-20T01:01:01;17.30;99.90
3758;DHT22;1894;51.038;13.692;2023-07-20T01:03:28;17.20;99.90
3758;DHT22;1894;51.038;13.692;2023-07-20T01:06:24;17.10;99.90
3758;DHT22;1894;51.038;13.692;2023-07-20T01:14:08;17.20;99.90
3758;DHT22;1894;51.038;13.692;2023-07-20T01:16:36;17.20;99.90
3758;DHT22;1894;51.038;13.692;2023-07-20T01:19:03;17.00;99.90
3758;DHT22;1894;51.038;13.692;2023-07-20T01:22:02;17.10;99.90
3758;DHT22;1894;51.038;13.692;2023-07-20T01:25:07;17.20;99.90
3758;DHT22;1894;51.038;13.692;2023-07-20T01:32:49;17.10;99.90
3758;DHT22;1894;51.038;13.692;2023-07-20T01:35:18;17.20;99.90
3758;DHT22;1894;51.038;13.692;2023-07-20T01:37:46;17.00;99.90
3758;DHT22;1894;51.038;13.692;2023-07-20T01:40:14;17.00;99.90
3758;DHT22;1894;51.038;13.692;2023-07-20T01:42:48;17.10;99.90
3758;DHT22;1894;51.038;13.692;2023-07-20T01:45:15;17.00;99.90
3758;DHT22;1894;51.038;13.692;2023-07-20T01:47:43;16.90;99.90
3758;DHT22;1894;51.038;13.692;2023-07-20T01:50:10;16.90;99.90
3758;DHT22;1894;51.038;13.692;2023-07-20T01:52:37;16.80;99.90
3758;DHT22;1894;51.038;13.692;2023-07-20T01:55:05;16.70;99.90
3758;DHT22;1894;51.038;13.692;2023-07-20T01:57:32;16.60;99.90
3758;DHT22;1894;51.038;13.692;2023-07-20T01:59:59;16.60;99.90
3758;DHT22;1894;51.038;13.692;2023-07-20T02:02:27;16.60;99.90
3758;DHT22;1894;51.038;13.692;2023-07-20T02:04:55;16.50;99.90
3758;DHT22;1894;51.038;13.692;2023-07-20T02:07:22;16.40;99.90
3758;DHT22;1894;51.038;13.692;2023-07-20T02:09:50;16.30;99.90
3758;DHT22;1894;51.038;13.692;2023-07-20T02:12:17;16.10;99.90
3758;DHT22;1894;51.038;13.692;2023-07-20T02:14:44;16.10;99.90
3758;DHT22;1894;51.038;13.692;2023-07-20T02:17:11;16.00;99.90
3758;DHT22;1894;51.038;13.692;2023-07-20T02:19:40;16.00;99.90
3758;DHT22;1894;51.038;13.692;2023-07-20T02:22:07;16.00;99.90
3758;DHT22;1894;51.038;13.692;2023-07-20T02:24:34;16.00;99.90
3758;DHT22;1894;51.038;13.692;2023-07-20T02:27:02;15.90;99.90
3758;DHT22;1894;51.038;13.692;2023-07-20T02:29:29;16.00;99.90
3758;DHT22;1894;51.038;13.692;2023-07-20T02:31:56;15.80;99.90
3758;DHT22;1894;51.038;13.692;2023-07-20T02:34:23;15.90;99.90
3758;DHT22;1894;51.038;13.692;2023-07-20T02:36:50;15.90;99.90
3758;DHT22;1894;51.038;13.692;2023-07-20T02:39:17;16.00;99.90
3758;DHT22;1894;51.038;13.692;2023-07-20T02:41:44;16.00;99.90
3758;DHT22;1894;51.038;13.692;2023-07-20T02:44:11;16.10;99.90
3758;DHT22;1894;51.038;13.692;2023-07-20T02:46:41;16.00;99.90
3758;DHT22;1894;51.038;13.692;2023-07-20T02:49:08;16.00;99.90
3758;DHT22;1894;51.038;13.692;2023-07-20T02:51:35;15.90;99.90
3758;DHT22;1894;51.038;13.692;2023-07-20T02:54:03;16.00;99.90
3758;DHT22;1894;51.038;13.692;2023-07-20T02:56:30;15.90;99.90
3758;DHT22;1894;51.038;13.692;2023-07-20T02:58:57;15.80;99.90
3758;DHT22;1894;51.038;13.692;2023-07-20T03:01:24;15.80;99.90
3758;DHT22;1894;51.038;13.692;2023-07-20T03:03:51;15.80;99.90
3758;DHT22;1894;51.038;13.692;2023-07-20T03:06:18;15.70;99.90
3758;DHT22;1894;51.038;13.692;2023-07-20T03:08:45;15.80;99.90
3758;DHT22;1894;51.038;13.692;2023-07-20T03:11:15;15.90;99.90
3758;DHT22;1894;51.038;13.692;2023-07-20T03:13:43;15.70;99.90
3758;DHT22;1894;51.038;13.692;2023-07-20T03:16:13;15.90;99.90
3758;DHT22;1894;51.038;13.692;2023-07-20T03:18:42;15.80;99.90
3758;DHT22;1894;51.038;13.692;2023-07-20T03:21:11;15.80;99.90
3758;DHT22;1894;51.038;13.692;2023-07-20T03:23:39;15.80;99.90
3758;DHT22;1894;51.038;13.692;2023-07-20T03:26:07;15.80;99.90
3758;DHT22;1894;51.038;13.692;2023-07-20T03:28:38;15.80;99.90
3758;DHT22;1894;51.038;13.692;2023-07-20T03:31:06;15.90;99.90
3758;DHT22;1894;51.038;13.692;2023-07-20T03:33:37;15.90;99.90
3758;DHT22;1894;51.038;13.692;2023-07-20T03:36:04;15.90;99.90
3758;DHT22;1894;51.038;13.692;2023-07-20T03:38:32;15.90;99.90
3758;DHT22;1894;51.038;13.692;2023-07-20T03:41:00;16.10;99.90
3758;DHT22;1894;51.038;13.692;2023-07-20T03:43:28;16.10;99.90
3758;DHT22;1894;51.038;13.692;2023-07-20T03:45:55;16.00;99.90
3758;DHT22;1894;51.038;13.692;2023-07-20T03:48:24;16.00;99.90
3758;DHT22;1894;51.038;13.692;2023-07-20T03:50:53;16.20;99.90
3758;DHT22;1894;51.038;13.692;2023-07-20T03:53:20;16.20;99.90
3758;DHT22;1894;51.038;13.692;2023-07-20T03:55:49;16.20;99.90
3758;DHT22;1894;51.038;13.692;2023-07-20T03:58:17;16.30;99.90
3758;DHT22;1894;51.038;13.692;2023-07-20T04:00:49;16.50;99.90
3758;DHT22;1894;51.038;13.692;2023-07-20T04:03:18;16.50;99.90
3758;DHT22;1894;51.038;13.692;2023-07-20T04:05:46;16.50;99.90
3758;DHT22;1894;51.038;13.692;2023-07-20T04:08:13;16.60;99.90
3758;DHT22;1894;51.038;13.692;2023-07-20T04:10:43;16.70;99.90
3758;DHT22;1894;51.038;13.692;2023-07-20T04:13:11;16.70;99.90
3758;DHT22;1894;51.038;13.692;2023-07-20T04:15:38;16.80;99.90
3758;DHT22;1894;51.038;13.692;2023-07-20T04:18:05;16.70;99.90
3758;DHT22;1894;51.038;13.692;2023-07-20T04:20:33;16.70;99.90
3758;DHT22;1894;51.038;13.692;2023-07-20T04:23:00;16.90;99.90
3758;DHT22;1894;51.038;13.692;2023-07-20T04:25:28;17.00;99.90
3758;DHT22;1894;51.038;13.692;2023-07-20T04:27:55;17.00;99.90
3758;DHT22;1894;51.038;13.692;2023-07-20T04:30:22;16.90;99.90
3758;DHT22;1894;51.038;13.692;2023-07-20T04:32:50;17.00;99.90
3758;DHT22;1894;51.038;13.692;2023-07-20T04:35:51;16.90;99.90
3758;DHT22;1894;51.038;13.692;2023-07-20T04:38:30;16.80;99.90
3758;DHT22;1894;51.038;13.692;2023-07-20T04:41:04;16.70;99.90
3758;DHT22;1894;51.038;13.692;2023-07-20T04:43:42;16.90;99.90
3758;DHT22;1894;51.038;13.692;2023-07-20T04:46:11;16.70;99.90
3758;DHT22;1894;51.038;13.692;2023-07-20T04:48:38;16.70;99.90
3758;DHT22;1894;51.038;13.692;2023-07-20T04:51:07;16.80;99.90
3758;DHT22;1894;51.038;13.692;2023-07-20T04:53:35;17.00;99.90
3758;DHT22;1894;51.038;13.692;2023-07-20T04:56:02;17.00;99.90
3758;DHT22;1894;51.038;13.692;2023-07-20T04:58:30;16.90;99.90
3758;DHT22;1894;51.038;13.692;2023-07-20T05:00:57;16.90;99.90
3758;DHT22;1894;51.038;13.692;2023-07-20T05:03:24;17.10;99.90
3758;DHT22;1894;51.038;13.692;2023-07-20T05:05:51;17.30;99.90
3758;DHT22;1894;51.038;13.692;2023-07-20T05:08:18;17.50;99.90
3758;DHT22;1894;51.038;13.692;2023-07-20T05:10:47;17.60;99.90
3758;DHT22;1894;51.038;13.692;2023-07-20T05:13:14;17.60;99.90
3758;DHT22;1894;51.038;13.692;2023-07-20T05:15:42;17.60;99.90
3758;DHT22;1894;51.038;13.692;2023-07-20T05:18:12;17.70;99.90
3758;DHT22;1894;51.038;13.692;2023-07-20T05:20:40;17.80;99.90
3758;DHT22;1894;51.038;13.692;2023-07-20T05:23:08;17.90;99.90
3758;DHT22;1894;51.038;13.692;2023-07-20T05:25:36;18.20;99.90
3758;DHT22;1894;51.038;13.692;2023-07-20T05:28:03;18.20;99.90
3758;DHT22;1894;51.038;13.692;2023-07-20T05:30:30;18.30;99.90
3758;DHT22;1894;51.038;13.692;2023-07-20T05:32:57;18.30;99.90
3758;DHT22;1894;51.038;13.692;2023-07-20T05:35:26;18.80;99.90
3758;DHT22;1894;51.038;13.692;2023-07-20T05:37:53;19.30;99.90
3758;DHT22;1894;51.038;13.692;2023-07-20T05:40:20;19.60;99.90
3758;DHT22;1894;51.038;13.692;2023-07-20T05:42:48;19.80;99.90
3758;DHT22;1894;51.038;13.692;2023-07-20T05:45:18;19.50;99.90
3758;DHT22;1894;51.038;13.692;2023-07-20T05:47:46;19.00;99.90
3758;DHT22;1894;51.038;13.692;2023-07-20T05:50:13;18.90;99.90
3758;DHT22;1894;51.038;13.692;2023-07-20T05:52:41;19.10;99.90
3758;DHT22;1894;51.038;13.692;2023-07-20T05:55:08;18.90;99.90
3758;DHT22;1894;51.038;13.692;2023-07-20T05:57:35;19.00;99.90
3758;DHT22;1894;51.038;13.692;2023-07-20T06:00:03;19.10;99.90
3758;DHT22;1894;51.038;13.692;2023-07-20T06:02:38;19.40;99.90
3758;DHT22;1894;51.038;13.692;2023-07-20T06:05:08;19.40;99.90
3758;DHT22;1894;51.038;13.692;2023-07-20T06:07:39;19.10;99.90
3758;DHT22;1894;51.038;13.692;2023-07-20T06:10:06;18.90;99.90
3758;DHT22;1894;51.038;13.692;2023-07-20T06:12:33;18.70;99.90
3758;DHT22;1894;51.038;13.692;2023-07-20T06:15:03;18.90;99.90
3758;DHT22;1894;51.038;13.692;2023-07-20T06:17:30;18.50;99.90
3758;DHT22;1894;51.038;13.692;2023-07-20T06:19:57;18.40;99.90
3758;DHT22;1894;51.038;13.692;2023-07-20T06:22:24;18.30;99.90
3758;DHT22;1894;51.038;13.692;2023-07-20T06:24:51;16.70;99.90
3758;DHT22;1894;51.038;13.692;2023-07-20T06:27:18;16.20;99.90
3758;DHT22;1894;51.038;13.692;2023-07-20T06:29:46;16.00;99.90
3758;DHT22;1894;51.038;13.692;2023-07-20T06:32:13;16.00;99.90
3758;DHT22;1894;51.038;13.692;2023-07-20T06:34:40;16.10;99.90
3758;DHT22;1894;51.038;13.692;2023-07-20T06:37:08;16.10;99.90
3758;DHT22;1894;51.038;13.692;2023-07-20T06:39:35;16.10;99.90
3758;DHT22;1894;51.038;13.692;2023-07-20T06:42:05;16.00;99.90
3758;DHT22;1894;51.038;13.692;2023-07-20T06:44:32;16.10;99.90
3758;DHT22;1894;51.038;13.692;2023-07-20T06:46:59;16.40;99.90
3758;DHT22;1894;51.038;13.692;2023-07-20T06:49:29;16.30;99.90
3758;DHT22;1894;51.038;13.692;2023-07-20T06:51:56;16.40;99.90
3758;DHT22;1894;51.038;13.692;2023-07-20T06:54:23;16.50;99.90
3758;DHT22;1894;51.038;13.692;2023-07-20T06:56:51;16.40;99.90
3758;DHT22;1894;51.038;13.692;2023-07-20T06:59:21;16.40;99.90
3758;DHT22;1894;51.038;13.692;2023-07-20T07:01:48;16.50;99.90
3758;DHT22;1894;51.038;13.692;2023-07-20T07:04:15;16.60;99.90
3758;DHT22;1894;51.038;13.692;2023-07-20T07:06:42;16.70;99.90
3758;DHT22;1894;51.038;13.692;2023-07-20T07:09:11;16.90;99.90
3758;DHT22;1894;51.038;13.692;2023-07-20T07:11:38;17.20;99.90
3758;DHT22;1894;51.038;13.692;2023-07-20T07:14:05;17.20;99.90
3758;DHT22;1894;51.038;13.692;2023-07-20T07:16:32;17.00;99.90
3758;DHT22;1894;51.038;13.692;2023-07-20T07:19:05;17.20;99.90
3758;DHT22;1894;51.038;13.692;2023-07-20T07:21:32;17.30;99.90
3758;DHT22;1894;51.038;13.692;2023-07-20T07:23:59;17.70;99.90
3758;DHT22;1894;51.038;13.692;2023-07-20T07:26:26;17.70;99.90
3758;DHT22;1894;51.038;13.692;2023-07-20T07:28:53;17.90;99.90
3758;DHT22;1894;51.038;13.692;2023-07-20T07:31:20;18.10;99.90
3758;DHT22;1894;51.038;13.692;2023-07-20T07:33:47;18.30;99.90
3758;DHT22;1894;51.038;13.692;2023-07-20T07:36:14;18.50;99.90
3758;DHT22;1894;51.038;13.692;2023-07-20T07:38:42;18.70;99.90
3758;DHT22;1894;51.038;13.692;2023-07-20T07:41:13;18.70;99.90
3758;DHT22;1894;51.038;13.692;2023-07-20T07:43:40;18.80;99.90
3758;DHT22;1894;51.038;13.692;2023-07-20T07:46:07;18.90;99.90
3758;DHT22;1894;51.038;13.692;2023-07-20T07:48:34;19.00;99.90
3758;DHT22;1894;51.038;13.692;2023-07-20T07:51:01;19.40;99.90
3758;DHT22;1894;51.038;13.692;2023-07-20T07:53:28;19.50;99.90
3758;DHT22;1894;51.038;13.692;2023-07-20T07:55:55;19.20;99.90
3758;DHT22;1894;51.038;13.692;2023-07-20T07:58:22;19.60;99.90
3758;DHT22;1894;51.038;13.692;2023-07-20T08:00:49;19.40;99.90
3758;DHT22;1894;51.038;13.692;2023-07-20T08:03:16;19.60;99.90
3758;DHT22;1894;51.038;13.692;2023-07-20T08:05:44;19.80;99.90
3758;DHT22;1894;51.038;13.692;2023-07-20T08:08:11;20.10;99.90
3758;DHT22;1894;51.038;13.692;2023-07-20T08:10:38;20.20;99.90
3758;DHT22;1894;51.038;13.692;2023-07-20T08:13:05;20.80;99.90
3758;DHT22;1894;51.038;13.692;2023-07-20T08:15:32;20.90;99.90
3758;DHT22;1894;51.038;13.692;2023-07-20T08:18:00;21.00;99.90
3758;DHT22;1894;51.038;13.692;2023-07-20T08:20:27;20.10;99.90
3758;DHT22;1894;51.038;13.692;2023-07-20T08:22:55;20.50;99.90
3758;DHT22;1894;51.038;13.692;2023-07-20T08:25:22;20.90;99.90
3758;DHT22;1894;51.038;13.692;2023-07-20T08:27:49;20.60;99.90
3758;DHT22;1894;51.038;13.692;2023-07-20T08:30:17;20.30;99.90
3758;DHT22;1894;51.038;13.692;2023-07-20T08:32:44;20.00;99.90
3758;DHT22;1894;51.038;13.692;2023-07-20T08:35:11;19.70;99.90
3758;DHT22;1894;51.038;13.692;2023-07-20T08:37:41;20.40;99.90
3758;DHT22;1894;51.038;13.692;2023-07-20T08:40:09;20.60;99.90
3758;DHT22;1894;51.038;13.692;2023-07-20T08:42:37;20.20;99.90
3758;DHT22;1894;51.038;13.692;2023-07-20T08:45:08;20.50;99.90
3758;DHT22;1894;51.038;13.692;2023-07-20T08:47:36;20.50;99.90
3758;DHT22;1894;51.038;13.692;2023-07-20T08:50:07;20.80;99.90
3758;DHT22;1894;51.038;13.692;2023-07-20T08:52:35;20.70;99.90
3758;DHT22;1894;51.038;13.692;2023-07-20T08:55:02;20.80;99.90
3758;DHT22;1894;51.038;13.692;2023-07-20T08:57:34;21.60;99.90
3758;DHT22;1894;51.038;13.692;2023-07-20T09:00:03;21.40;99.90
3758;DHT22;1894;51.038;13.692;2023-07-20T09:02:39;21.60;99.90
3758;DHT22;1894;51.038;13.692;2023-07-20T09:05:09;22.00;99.90
3758;DHT22;1894;51.038;13.692;2023-07-20T09:07:38;22.00;99.90
3758;DHT22;1894;51.038;13.692;2023-07-20T09:10:07;21.70;99.90
3758;DHT22;1894;51.038;13.692;2023-07-20T09:12:38;21.70;99.90
3758;DHT22;1894;51.038;13.692;2023-07-20T09:15:06;21.80;99.90
3758;DHT22;1894;51.038;13.692;2023-07-20T09:17:34;21.80;99.90
3758;DHT22;1894;51.038;13.692;2023-07-20T09:20:09;22.30;99.90
3758;DHT22;1894;51.038;13.692;2023-07-20T09:22:39;22.00;99.90
3758;DHT22;1894;51.038;13.692;2023-07-20T09:25:11;21.90;99.90
3758;DHT22;1894;51.038;13.692;2023-07-20T09:27:48;22.30;99.90
3758;DHT22;1894;51.038;13.692;2023-07-20T09:30:18;21.80;99.90
3758;DHT22;1894;51.038;13.692;2023-07-20T09:32:47;22.00;99.90
3758;DHT22;1894;51.038;13.692;2023-07-20T09:35:21;22.30;99.90
3758;DHT22;1894;51.038;13.692;2023-07-20T09:38:01;21.30;99.90
3758;DHT22;1894;51.038;13.692;2023-07-20T09:40:37;21.50;99.90
3758;DHT22;1894;51.038;13.692;2023-07-20T09:43:09;21.90;99.90
3758;DHT22;1894;51.038;13.692;2023-07-20T09:45:40;22.60;99.90
3758;DHT22;1894;51.038;13.692;2023-07-20T09:48:11;22.80;99.90
3758;DHT22;1894;51.038;13.692;2023-07-20T09:50:48;22.70;99.90
3758;DHT22;1894;51.038;13.692;2023-07-20T09:53:17;22.90;99.90
3758;DHT22;1894;51.038;13.692;2023-07-20T09:55:45;23.00;99.90
3758;DHT22;1894;51.038;13.692;2023-07-20T09:58:13;22.40;99.90
3758;DHT22;1894;51.038;13.692;2023-07-20T10:00:41;21.20;99.90
3758;DHT22;1894;51.038;13.692;2023-07-20T10:03:25;20.90;99.90
3758;DHT22;1894;51.038;13.692;2023-07-20T10:06:03;21.00;99.90
3758;DHT22;1894;51.038;13.692;2023-07-20T10:08:33;20.50;99.90
3758;DHT22;1894;51.038;13.692;2023-07-20T10:11:04;20.30;99.90
3758;DHT22;1894;51.038;13.692;2023-07-20T10:13:32;20.40;99.90
3758;DHT22;1894;51.038;13.692;2023-07-20T10:16:10;20.70;99.90
3758;DHT22;1894;51.038;13.692;2023-07-20T10:18:46;21.10;99.90
3758;DHT22;1894;51.038;13.692;2023-07-20T10:21:19;21.50;99.90
3758;DHT22;1894;51.038;13.692;2023-07-20T10:23:49;21.70;99.90
3758;DHT22;1894;51.038;13.692;2023-07-20T10:26:16;21.90;99.90
3758;DHT22;1894;51.038;13.692;2023-07-20T10:28:43;22.50;99.90
3758;DHT22;1894;51.038;13.692;2023-07-20T10:31:12;22.50;99.90
3758;DHT22;1894;51.038;13.692;2023-07-20T10:33:40;22.50;99.90
3758;DHT22;1894;51.038;13.692;2023-07-20T10:36:09;22.60;99.90
3758;DHT22;1894;51.038;13.692;2023-07-20T10:38:52;22.80;99.90
3758;DHT22;1894;51.038;13.692;2023-07-20T10:41:32;22.90;99.90
3758;DHT22;1894;51.038;13.692;2023-07-20T10:44:04;23.10;99.90
3758;DHT22;1894;51.038;13.692;2023-07-20T10:49:09;22.70;99.90
3758;DHT22;1894;51.038;13.692;2023-07-20T10:51:47;22.70;99.90
3758;DHT22;1894;51.038;13.692;2023-07-20T10:56:47;22.50;99.90
3758;DHT22;1894;51.038;13.692;2023-07-20T11:01:57;21.70;99.90
3758;DHT22;1894;51.038;13.692;2023-07-20T11:04:43;20.90;99.90
3758;DHT22;1894;51.038;13.692;2023-07-20T11:07:16;19.80;99.90
3758;DHT22;1894;51.038;13.692;2023-07-20T11:09:43;18.60;99.90
3758;DHT22;1894;51.038;13.692;2023-07-20T11:12:17;18.50;99.90
3758;DHT22;1894;51.038;13.692;2023-07-20T11:14:58;18.80;99.90
3758;DHT22;1894;51.038;13.692;2023-07-20T11:17:30;19.40;99.90
3758;DHT22;1894;51.038;13.692;2023-07-20T11:20:01;19.80;99.90
3758;DHT22;1894;51.038;13.692;2023-07-20T11:22:31;20.10;99.90
3758;DHT22;1894;51.038;13.692;2023-07-20T11:24:58;20.50;99.90
3758;DHT22;1894;51.038;13.692;2023-07-20T11:27:25;20.70;99.90
3758;DHT22;1894;51.038;13.692;2023-07-20T11:29:52;21.20;99.90
3758;DHT22;1894;51.038;13.692;2023-07-20T11:32:23;21.40;99.90
3758;DHT22;1894;51.038;13.692;2023-07-20T11:34:51;22.10;99.90
3758;DHT22;1894;51.038;13.692;2023-07-20T11:37:18;22.80;99.90
3758;DHT22;1894;51.038;13.692;2023-07-20T11:39:45;22.80;99.90
3758;DHT22;1894;51.038;13.692;2023-07-20T11:42:13;23.10;99.90
3758;DHT22;1894;51.038;13.692;2023-07-20T11:45:03;23.00;99.90
3758;DHT22;1894;51.038;13.692;2023-07-20T11:47:32;23.50;99.90
3758;DHT22;1894;51.038;13.692;2023-07-20T11:50:03;23.70;99.90
3758;DHT22;1894;51.038;13.692;2023-07-20T11:52:31;24.00;99.90
3758;DHT22;1894;51.038;13.692;2023-07-20T11:54:58;24.20;99.90
3758;DHT22;1894;51.038;13.692;2023-07-20T11:57:26;24.30;99.90
3758;DHT22;1894;51.038;13.692;2023-07-20T11:59:57;24.10;99.90
3758;DHT22;1894;51.038;13.692;2023-07-20T12:02:29;23.90;99.90
3758;DHT22;1894;51.038;13.692;2023-07-20T12:04:56;23.40;99.90
3758;DHT22;1894;51.038;13.692;2023-07-20T12:07:28;22.90;99.90
3758;DHT22;1894;51.038;13.692;2023-07-20T12:12:33;22.20;99.90
3758;DHT22;1894;51.038;13.692;2023-07-20T12:15:14;22.00;99.90
3758;DHT22;1894;51.038;13.692;2023-07-20T12:17:45;21.80;99.90
3758;DHT22;1894;51.038;13.692;2023-07-20T12:20:13;21.40;99.90
3758;DHT22;1894;51.038;13.692;2023-07-20T12:22:41;21.00;99.90
3758;DHT22;1894;51.038;13.692;2023-07-20T12:25:10;20.60;99.90
3758;DHT22;1894;51.038;13.692;2023-07-20T12:27:37;20.40;99.90
3758;DHT22;1894;51.038;13.692;2023-07-20T12:30:09;20.30;99.90
3758;DHT22;1894;51.038;13.692;2023-07-20T12:32:36;20.20;99.90
3758;DHT22;1894;51.038;13.692;2023-07-20T12:35:03;20.30;99.90
3758;DHT22;1894;51.038;13.692;2023-07-20T12:37:30;20.30;99.90
3758;DHT22;1894;51.038;13.692;2023-07-20T12:39:57;20.30;99.90
3758;DHT22;1894;51.038;13.692;2023-07-20T12:42:24;20.20;99.90
3758;DHT22;1894;51.038;13.692;2023-07-20T12:44:52;20.00;99.90
3758;DHT22;1894;51.038;13.692;2023-07-20T12:47:19;19.50;99.90
3758;DHT22;1894;51.038;13.692;2023-07-20T12:49:46;19.20;99.90
3758;DHT22;1894;51.038;13.692;2023-07-20T12:52:13;19.30;99.90
3758;DHT22;1894;51.038;13.692;2023-07-20T12:54:40;19.30;99.90
3758;DHT22;1894;51.038;13.692;2023-07-20T12:57:07;19.00;99.90
3758;DHT22;1894;51.038;13.692;2023-07-20T12:59:37;19.00;99.90
3758;DHT22;1894;51.038;13.692;2023-07-20T13:02:05;19.10;99.90
3758;DHT22;1894;51.038;13.692;2023-07-20T13:04:32;19.20;99.90
3758;DHT22;1894;51.038;13.692;2023-07-20T13:06:59;19.50;99.90
3758;DHT22;1894;51.038;13.692;2023-07-20T13:09:27;19.00;99.90
3758;DHT22;1894;51.038;13.692;2023-07-20T13:11:54;19.50;99.90
3758;DHT22;1894;51.038;13.692;2023-07-20T13:14:23;19.00;99.90
3758;DHT22;1894;51.038;13.692;2023-07-20T13:16:50;19.10;99.90
3758;DHT22;1894;51.038;13.692;2023-07-20T13:19:18;19.30;99.90
3758;DHT22;1894;51.038;13.692;2023-07-20T13:21:44;19.30;99.90
3758;DHT22;1894;51.038;13.692;2023-07-20T13:24:11;19.60;99.90
3758;DHT22;1894;51.038;13.692;2023-07-20T13:26:39;19.90;99.90
3758;DHT22;1894;51.038;13.692;2023-07-20T13:29:06;20.00;99.90
3758;DHT22;1894;51.038;13.692;2023-07-20T13:31:33;20.30;99.90
3758;DHT22;1894;51.038;13.692;2023-07-20T13:34:01;19.90;99.90
3758;DHT22;1894;51.038;13.692;2023-07-20T13:36:30;20.10;99.90
3758;DHT22;1894;51.038;13.692;2023-07-20T13:38:58;20.20;99.90
3758;DHT22;1894;51.038;13.692;2023-07-20T13:41:26;20.60;99.90
3758;DHT22;1894;51.038;13.692;2023-07-20T13:43:55;20.40;99.90
3758;DHT22;1894;51.038;13.692;2023-07-20T13:46:24;20.50;99.90
3758;DHT22;1894;51.038;13.692;2023-07-20T13:48:54;21.20;99.90
3758;DHT22;1894;51.038;13.692;2023-07-20T13:51:24;21.10;99.90
3758;DHT22;1894;51.038;13.692;2023-07-20T13:53:54;20.60;99.90
3758;DHT22;1894;51.038;13.692;2023-07-20T13:56:21;20.30;99.90
3758;DHT22;1894;51.038;13.692;2023-07-20T13:58:48;19.90;99.90
3758;DHT22;1894;51.038;13.692;2023-07-20T14:01:17;20.20;99.90
3758;DHT22;1894;51.038;13.692;2023-07-20T14:03:47;20.40;99.90
3758;DHT22;1894;51.038;13.692;2023-07-20T14:06:14;20.00;99.90
3758;DHT22;1894;51.038;13.692;2023-07-20T14:08:45;20.20;99.90
3758;DHT22;1894;51.038;13.692;2023-07-20T14:11:13;20.50;99.90
3758;DHT22;1894;51.038;13.692;2023-07-20T14:13:43;20.90;99.90
3758;DHT22;1894;51.038;13.692;2023-07-20T14:16:14;21.10;99.90
3758;DHT22;1894;51.038;13.692;2023-07-20T14:18:41;21.80;99.90
3758;DHT22;1894;51.038;13.692;2023-07-20T14:21:08;22.50;99.90
3758;DHT22;1894;51.038;13.692;2023-07-20T14:23:35;22.60;99.90
3758;DHT22;1894;51.038;13.692;2023-07-20T14:26:03;22.40;99.90
3758;DHT22;1894;51.038;13.692;2023-07-20T14:28:33;23.30;99.90
3758;DHT22;1894;51.038;13.692;2023-07-20T14:31:00;23.40;99.90
3758;DHT22;1894;51.038;13.692;2023-07-20T14:33:27;23.90;99.90
3758;DHT22;1894;51.038;13.692;2023-07-20T14:35:55;23.40;99.90
3758;DHT22;1894;51.038;13.692;2023-07-20T14:38:22;23.70;99.90
3758;DHT22;1894;51.038;13.692;2023-07-20T14:40:49;25.80;99.90
3758;DHT22;1894;51.038;13.692;2023-07-20T14:43:19;27.40;99.90
3758;DHT22;1894;51.038;13.692;2023-07-20T14:45:46;29.40;99.90
3758;DHT22;1894;51.038;13.692;2023-07-20T14:48:14;29.90;99.90
3758;DHT22;1894;51.038;13.692;2023-07-20T14:50:41;30.20;99.90
3758;DHT22;1894;51.038;13.692;2023-07-20T14:53:09;29.40;99.90
3758;DHT22;1894;51.038;13.692;2023-07-20T14:55:36;28.60;99.90
3758;DHT22;1894;51.038;13.692;2023-07-20T14:58:03;29.60;99.90
3758;DHT22;1894;51.038;13.692;2023-07-20T15:00:30;28.70;99.90
3758;DHT22;1894;51.038;13.692;2023-07-20T15:02:57;28.60;99.90
3758;DHT22;1894;51.038;13.692;2023-07-20T15:05:25;28.70;99.90
3758;DHT22;1894;51.038;13.692;2023-07-20T15:07:53;28.60;99.90
3758;DHT22;1894;51.038;13.692;2023-07-20T15:10:20;29.40;99.90
3758;DHT22;1894;51.038;13.692;2023-07-20T15:12:48;29.40;98.80
3758;DHT22;1894;51.038;13.692;2023-07-20T15:15:16;28.30;99.50
3758;DHT22;1894;51.038;13.692;2023-07-20T15:17:44;26.50;99.90
3758;DHT22;1894;51.038;13.692;2023-07-20T15:20:13;25.50;99.90
3758;DHT22;1894;51.038;13.692;2023-07-20T15:22:40;25.90;99.90
3758;DHT22;1894;51.038;13.692;2023-07-20T15:25:08;25.20;99.90
3758;DHT22;1894;51.038;13.692;2023-07-20T15:27:39;26.20;99.90
3758;DHT22;1894;51.038;13.692;2023-07-20T15:30:15;26.90;99.90
3758;DHT22;1894;51.038;13.692;2023-07-20T15:33:02;27.00;99.90
3758;DHT22;1894;51.038;13.692;2023-07-20T15:35:33;26.40;99.90
3758;DHT22;1894;51.038;13.692;2023-07-20T15:38:00;25.20;99.90
3758;DHT22;1894;51.038;13.692;2023-07-20T15:40:27;25.30;99.90
3758;DHT22;1894;51.038;13.692;2023-07-20T15:42:54;25.10;99.90
3758;DHT22;1894;51.038;13.692;2023-07-20T15:45:21;27.00;99.90
3758;DHT22;1894;51.038;13.692;2023-07-20T15:47:49;28.80;99.90
3758;DHT22;1894;51.038;13.692;2023-07-20T15:50:16;29.70;99.70
3758;DHT22;1894;51.038;13.692;2023-07-20T15:52:47;29.20;98.20
3758;DHT22;1894;51.038;13.692;2023-07-20T15:55:16;28.90;97.70
3758;DHT22;1894;51.038;13.692;2023-07-20T15:57:43;27.40;99.20
3758;DHT22;1894;51.038;13.692;2023-07-20T16:00:10;26.10;99.90
3758;DHT22;1894;51.038;13.692;2023-07-20T16:02:37;27.40;99.90
3758;DHT22;1894;51.038;13.692;2023-07-20T16:05:06;26.90;99.90
3758;DHT22;1894;51.038;13.692;2023-07-20T16:07:36;29.60;97.80
3758;DHT22;1894;51.038;13.692;2023-07-20T16:10:04;30.20;96.40
3758;DHT22;1894;51.038;13.692;2023-07-20T16:12:32;31.20;95.30
3758;DHT22;1894;51.038;13.692;2023-07-20T16:14:59;33.00;92.30
3758;DHT22;1894;51.038;13.692;2023-07-20T16:17:29;33.70;91.20